McCullough, Alabama
Current Conditions -  °F | °C
As of 4:53 PM on Thursday 20 Nov 2014 (Local Time) from KGZH Reporting Station
Clear Clear  
Wind Chill: 58°   Ceiling: Unl
Heat Index: 58°   Visibility: 10mi
Dew Point: 44°   Wind: 0mph
Humidity: 60%   Direction: NA
Pressure: 30.22"   Gusts: NA
Location:  31.1324°N, 87.4695°W
Report Text: KGZH 202253Z AUTO 00000KT 10SM CLR 14/07 A3022 RMK AO2 SLP235 T01440067
Loading
Personal Weather Stations






























Interactive Weather Map New forecast layout! Learn more

10-Day Weather Forecast

Advertisements
Track Severe Weather on mobile